Time;durP1;ratioP1;P1;durP2;ratioP2;P2;SDS_P1;SDS_P2;PMS_P1;PMS_P2;Temp;Humidity;BMP_temperature;BMP_pressure;BME280_temperature;BME280_humidity;BME280_pressure;Samples;Min_cycle;Max_cycle;Signal;HPM_P1;HPM_P2
2022/06/28 05:26:50;;;;;;;0.20;0.10;;;16.10;99.90;;;;;;630510;22;20776;-83
2022/06/28 06:13:37;;;;;;;13.13;12.03;;;17.00;99.90;;;;;;4951644;29;20490;-82
2022/06/28 06:25:50;;;;;;;11.23;10.10;;;17.70;99.90;;;;;;5022131;28;20992;-83
2022/06/28 06:28:16;;;;;;;10.90;9.90;;;18.00;99.90;;;;;;5066094;28;20478;-81
2022/06/28 06:30:45;;;;;;;9.53;8.63;;;18.30;99.90;;;;;;5044022;28;20476;-81
2022/06/28 06:33:11;;;;;;;10.00;9.00;;;18.60;99.90;;;;;;5047447;28;20443;-80
2022/06/28 06:35:38;;;;;;;7.97;7.37;;;18.90;99.90;;;;;;5048923;28;20534;-81
2022/06/28 06:38:05;;;;;;;8.37;7.77;;;19.20;99.90;;;;;;5049269;28;20476;-81
2022/06/28 06:40:32;;;;;;;9.10;8.30;;;19.50;99.90;;;;;;5052675;28;20451;-81
2022/06/28 06:42:59;;;;;;;9.70;9.00;;;19.80;99.90;;;;;;5042500;28;20457;-81
2022/06/28 06:45:25;;;;;;;9.23;8.33;;;20.00;99.90;;;;;;5043622;28;20452;-81
2022/06/28 06:47:53;;;;;;;9.30;8.57;;;20.00;99.90;;;;;;5062461;28;20480;-80
2022/06/28 06:50:22;;;;;;;9.60;8.77;;;19.70;99.90;;;;;;5052675;28;20459;-81
2022/06/28 06:52:49;;;;;;;8.83;8.03;;;19.70;99.90;;;;;;5043004;28;20854;-81
2022/06/28 06:55:16;;;;;;;7.90;7.40;;;19.90;99.90;;;;;;5058461;28;20449;-81
2022/06/28 06:57:43;;;;;;;9.50;8.63;;;20.00;99.90;;;;;;5044232;28;20483;-81
2022/06/28 07:00:11;;;;;;;8.67;8.00;;;19.90;99.90;;;;;;5039082;28;20455;-81
2022/06/28 07:02:40;;;;;;;9.17;8.27;;;19.90;99.90;;;;;;5052434;28;20831;-82
2022/06/28 07:05:09;;;;;;;10.43;9.53;;;19.80;99.90;;;;;;5052877;28;20461;-81
2022/06/28 07:07:35;;;;;;;9.37;8.67;;;19.90;99.90;;;;;;5042107;28;20476;-81
2022/06/28 07:10:03;;;;;;;9.90;9.00;;;19.80;99.90;;;;;;5043035;28;20453;-81
2022/06/28 07:12:30;;;;;;;10.43;9.30;;;19.70;99.90;;;;;;5050730;28;20493;-81
2022/06/28 07:14:57;;;;;;;9.13;8.40;;;19.50;99.90;;;;;;5049415;28;20453;-81
2022/06/28 07:17:24;;;;;;;10.27;9.37;;;19.50;99.90;;;;;;5050355;28;20468;-81
2022/06/28 07:19:51;;;;;;;10.00;9.00;;;19.40;99.90;;;;;;5047834;28;20464;-80
2022/06/28 07:22:19;;;;;;;10.50;9.70;;;19.30;99.90;;;;;;5042093;28;20456;-81
2022/06/28 07:24:45;;;;;;;11.40;10.30;;;19.30;99.90;;;;;;5049315;28;20451;-81
2022/06/28 07:27:12;;;;;;;10.57;9.60;;;19.10;99.90;;;;;;5054103;28;20455;-80
2022/06/28 07:29:39;;;;;;;12.90;11.70;;;18.90;99.90;;;;;;5054853;28;20514;-83
2022/06/28 07:32:07;;;;;;;13.17;12.07;;;18.80;99.90;;;;;;5054582;28;20491;-82
2022/06/28 07:34:34;;;;;;;12.20;11.30;;;18.60;99.90;;;;;;5052246;28;20447;-80
2022/06/28 07:37:00;;;;;;;12.97;11.97;;;18.50;99.90;;;;;;5051810;28;20456;-85
2022/06/28 07:39:29;;;;;;;12.80;11.80;;;18.40;99.90;;;;;;5047922;28;20456;-80
2022/06/28 07:41:55;;;;;;;12.73;11.30;;;18.60;99.90;;;;;;5048998;28;20968;-81
2022/06/28 07:44:22;;;;;;;12.47;11.10;;;18.80;99.90;;;;;;5056539;28;20458;-82
2022/06/28 07:46:49;;;;;;;12.17;11.20;;;19.00;99.90;;;;;;5062298;28;20462;-82
2022/06/28 07:49:15;;;;;;;12.00;11.00;;;19.20;99.90;;;;;;5063104;28;20478;-80
2022/06/28 07:54:27;;;;;;;9.50;8.80;;;19.60;99.90;;;;;;5042092;28;20504;-83
2022/06/28 07:56:55;;;;;;;9.80;9.00;;;20.00;99.90;;;;;;5050568;28;20467;-81
2022/06/28 07:59:21;;;;;;;9.07;8.37;;;20.20;99.90;;;;;;5055327;28;20555;-82
2022/06/28 08:01:48;;;;;;;10.60;8.33;;;20.30;99.90;;;;;;5047327;28;20442;-84
2022/06/28 08:04:15;;;;;;;9.33;8.63;;;20.10;99.90;;;;;;5052231;28;20870;-85
2022/06/28 08:06:43;;;;;;;9.30;8.63;;;20.00;99.90;;;;;;5044668;28;20464;-85
2022/06/28 08:09:09;;;;;;;9.57;8.87;;;19.90;99.90;;;;;;5052021;28;20480;-82
2022/06/28 08:11:39;;;;;;;8.90;8.20;;;19.70;99.90;;;;;;5052761;28;20484;-83
2022/06/28 08:14:11;;;;;;;9.97;9.13;;;19.60;99.90;;;;;;5056060;28;20883;-84
2022/06/28 08:16:38;;;;;;;9.43;8.73;;;19.80;99.90;;;;;;5043949;28;20460;-82
2022/06/28 08:19:05;;;;;;;7.83;7.23;;;19.80;99.90;;;;;;5052276;28;20479;-82
2022/06/28 08:21:32;;;;;;;8.30;7.60;;;19.90;99.90;;;;;;5046492;28;20452;-82
2022/06/28 08:23:59;;;;;;;8.40;7.70;;;19.90;99.90;;;;;;5059535;28;20460;-80
2022/06/28 08:26:26;;;;;;;9.47;8.67;;;19.80;99.90;;;;;;5048910;28;20455;-83
2022/06/28 08:28:52;;;;;;;8.70;8.00;;;19.70;99.90;;;;;;5040047;28;20475;-82
2022/06/28 08:31:20;;;;;;;8.47;7.77;;;19.80;99.90;;;;;;5044936;28;20882;-82
2022/06/28 08:33:47;;;;;;;7.27;6.77;;;19.70;99.90;;;;;;5055475;28;20516;-83
2022/06/28 08:36:14;;;;;;;8.50;7.80;;;19.70;99.90;;;;;;5055404;28;20465;-84
2022/06/28 08:38:41;;;;;;;8.30;7.70;;;19.80;99.90;;;;;;5045153;28;20473;-85
2022/06/28 08:41:07;;;;;;;8.23;7.60;;;19.90;99.90;;;;;;5053744;28;20815;-83
2022/06/28 08:43:34;;;;;;;8.10;7.50;;;19.90;99.90;;;;;;5056954;28;20452;-82
2022/06/28 08:46:03;;;;;;;7.40;6.90;;;20.10;99.90;;;;;;5047228;28;20459;-82
2022/06/28 08:48:35;;;;;;;8.23;7.53;;;20.60;99.90;;;;;;5050457;28;20516;-82
2022/06/28 08:51:02;;;;;;;6.90;6.40;;;20.70;99.90;;;;;;5054799;28;20449;-82
2022/06/28 08:53:30;;;;;;;7.03;6.50;;;21.00;99.90;;;;;;5046033;28;20946;-82
2022/06/28 08:55:58;;;;;;;7.20;6.70;;;21.10;99.90;;;;;;5056113;28;20450;-81
2022/06/28 08:58:26;;;;;;;7.30;6.60;;;20.90;99.90;;;;;;5039011;28;20481;-82
2022/06/28 09:00:53;;;;;;;7.63;7.13;;;21.00;99.90;;;;;;5040152;28;20813;-82
2022/06/28 09:03:20;;;;;;;7.30;6.70;;;21.00;99.90;;;;;;5041303;28;20450;-82
2022/06/28 09:05:48;;;;;;;7.23;6.70;;;21.30;99.90;;;;;;5048312;28;20471;-82
2022/06/28 09:08:14;;;;;;;8.10;7.50;;;21.40;99.90;;;;;;5056079;28;21005;-82
2022/06/28 09:10:42;;;;;;;7.77;7.07;;;21.30;99.90;;;;;;5053636;28;20460;-81
2022/06/28 09:13:11;;;;;;;8.30;7.60;;;21.10;99.90;;;;;;5048756;28;20488;-81
2022/06/28 09:15:56;;;;;;;7.80;7.23;;;20.90;99.90;;;;;;5058504;28;20464;-81
2022/06/28 09:18:25;;;;;;;6.30;5.90;;;21.20;99.90;;;;;;5056056;28;20474;-79
2022/06/28 09:20:56;;;;;;;6.33;5.83;;;21.30;99.90;;;;;;5048705;28;20460;-79
2022/06/28 09:23:28;;;;;;;6.03;5.63;;;20.90;99.90;;;;;;5045292;28;20460;-84
2022/06/28 09:25:57;;;;;;;6.00;5.50;;;20.90;99.90;;;;;;5046207;28;20453;-83
2022/06/28 09:28:28;;;;;;;5.30;4.97;;;21.00;99.90;;;;;;5053204;28;20462;-84
2022/06/28 09:31:14;;;;;;;5.90;5.50;;;21.40;99.90;;;;;;5040205;28;20447;-84
2022/06/28 09:33:42;;;;;;;5.33;5.00;;;21.70;99.90;;;;;;5040224;28;20433;-84
2022/06/28 09:36:13;;;;;;;5.67;5.17;;;21.70;99.90;;;;;;5042186;28;20443;-85
2022/06/28 09:38:40;;;;;;;4.73;4.33;;;22.10;99.90;;;;;;5060948;28;20463;-84
2022/06/28 09:41:19;;;;;;;6.10;5.60;;;22.40;99.90;;;;;;5059073;28;20451;-85
2022/06/28 09:43:54;;;;;;;5.40;5.03;;;22.70;99.90;;;;;;5038881;28;20456;-85
2022/06/28 09:46:26;;;;;;;4.17;3.87;;;22.90;99.90;;;;;;5043229;28;20491;-83
2022/06/28 09:48:56;;;;;;;4.80;4.50;;;22.90;99.90;;;;;;5049740;28;20471;-85
2022/06/28 09:51:26;;;;;;;5.57;5.17;;;22.70;99.90;;;;;;5040320;28;20575;-86
2022/06/28 09:53:55;;;;;;;5.30;4.90;;;22.40;99.90;;;;;;5059448;28;20449;-83
2022/06/28 09:56:24;;;;;;;4.93;4.63;;;22.30;99.90;;;;;;5059371;28;20477;-84
2022/06/28 09:58:52;;;;;;;6.20;5.70;;;22.40;99.90;;;;;;5057535;28;20503;-84
2022/06/28 10:01:20;;;;;;;5.13;4.73;;;22.60;99.90;;;;;;5038703;28;20457;-84
2022/06/28 10:03:48;;;;;;;4.70;4.40;;;22.90;99.90;;;;;;5039763;28;20441;-84
2022/06/28 10:06:15;;;;;;;4.10;3.80;;;23.20;99.90;;;;;;5039368;28;20459;-84
2022/06/28 10:08:44;;;;;;;4.00;3.70;;;22.70;99.90;;;;;;5059585;28;20471;-84
2022/06/28 10:11:11;;;;;;;4.43;4.13;;;22.60;99.90;;;;;;5059221;28;20815;-85
2022/06/28 10:16:32;;;;;;;4.63;4.33;;;23.20;99.90;;;;;;5059467;28;20455;-84
2022/06/28 10:19:00;;;;;;;4.07;3.73;;;23.70;99.90;;;;;;5058863;28;20482;-84
2022/06/28 10:21:43;;;;;;;3.40;3.20;;;24.10;99.90;;;;;;5059503;28;20455;-84
2022/06/28 10:24:12;;;;;;;3.03;2.83;;;24.30;99.90;;;;;;5038822;28;20456;-84
2022/06/28 10:26:39;;;;;;;3.90;3.63;;;24.60;99.90;;;;;;5039797;28;20503;-84
2022/06/28 10:29:09;;;;;;;3.43;3.23;;;24.90;99.90;;;;;;5048984;28;20480;-84
2022/06/28 10:31:40;;;;;;;3.77;3.57;;;24.70;99.30;;;;;;5058005;28;20514;-84
2022/06/28 10:34:10;;;;;;;3.20;3.00;;;24.10;98.30;;;;;;5059798;28;20455;-85
2022/06/28 10:36:49;;;;;;;3.17;2.97;;;24.30;99.30;;;;;;5053804;28;20454;-84
2022/06/28 10:39:20;;;;;;;3.60;3.40;;;24.30;99.90;;;;;;5039270;28;20476;-84
2022/06/28 10:41:49;;;;;;;3.70;3.40;;;24.20;98.80;;;;;;5043987;28;20437;-84
2022/06/28 10:44:18;;;;;;;3.60;3.40;;;24.20;98.50;;;;;;5058937;28;20453;-85
2022/06/28 10:46:57;;;;;;;2.83;2.73;;;24.40;99.30;;;;;;5054410;28;20556;-83
2022/06/28 10:49:26;;;;;;;3.60;3.30;;;24.60;99.50;;;;;;5044707;28;20481;-82
2022/06/28 10:52:12;;;;;;;2.80;2.60;;;24.60;99.10;;;;;;5046220;28;20476;-82
2022/06/28 10:54:42;;;;;;;3.80;3.50;;;25.00;99.90;;;;;;5044599;28;20460;-81
2022/06/28 10:57:22;;;;;;;3.93;2.80;;;25.10;98.40;;;;;;5043744;28;20453;-82
2022/06/28 10:59:51;;;;;;;2.87;2.67;;;25.20;98.00;;;;;;5047419;28;20461;-81
2022/06/28 11:02:18;;;;;;;2.57;2.40;;;25.00;97.10;;;;;;5043162;28;20951;-82
2022/06/28 11:04:46;;;;;;;2.50;2.17;;;25.30;97.20;;;;;;5044827;28;20478;-82
2022/06/28 11:17:37;;;;;;;2.77;2.67;;;27.10;94.60;;;;;;1259253;22;21561;-84
2022/06/28 11:20:12;;;;;;;3.13;2.93;;;27.40;94.30;;;;;;5063443;28;20448;-82
2022/06/28 11:22:41;;;;;;;3.13;2.93;;;26.90;94.20;;;;;;5053839;28;20981;-83
2022/06/28 11:25:14;;;;;;;2.77;2.67;;;27.00;93.70;;;;;;5046809;28;20460;-85
2022/06/28 11:27:48;;;;;;;2.97;2.77;;;26.70;93.40;;;;;;5041725;28;20471;-84
2022/06/28 11:30:47;;;;;;;2.43;2.33;;;26.30;93.20;;;;;;5053001;28;20859;-84
2022/06/28 11:33:39;;;;;;;2.73;2.57;;;26.40;94.20;;;;;;5052668;28;20486;-85
2022/06/28 11:36:06;;;;;;;3.10;2.90;;;26.80;94.10;;;;;;5053344;28;20455;-84
2022/06/28 11:38:33;;;;;;;2.77;2.57;;;26.80;94.60;;;;;;5055381;28;20473;-82
2022/06/28 11:41:00;;;;;;;3.30;3.10;;;27.00;94.20;;;;;;5058801;28;20456;-83
2022/06/28 11:43:27;;;;;;;3.40;3.10;;;26.70;93.80;;;;;;5060911;28;20886;-83
2022/06/28 11:45:57;;;;;;;2.33;2.17;;;26.90;93.90;;;;;;5059754;28;20475;-84
2022/06/28 11:48:49;;;;;;;2.70;2.57;;;27.10;94.00;;;;;;5056568;28;20470;-84
2022/06/28 11:51:29;;;;;;;2.70;2.50;;;26.90;92.90;;;;;;5026220;28;20463;-83
2022/06/28 11:53:59;;;;;;;2.30;2.20;;;27.30;94.00;;;;;;5058322;28;20476;-84
2022/06/28 11:56:27;;;;;;;2.93;2.73;;;27.70;93.60;;;;;;5058898;28;20434;-84
2022/06/28 11:58:53;;;;;;;2.27;2.17;;;27.80;92.50;;;;;;5056889;28;20561;-84
2022/06/28 12:04:06;;;;;;;3.10;2.90;;;27.70;91.50;;;;;;5056087;28;20455;-86
2022/06/28 12:06:35;;;;;;;3.30;2.33;;;27.50;91.40;;;;;;5054570;28;20811;-85
2022/06/28 12:09:04;;;;;;;2.53;2.43;;;28.00;91.80;;;;;;5047748;28;20488;-84
2022/06/28 12:11:41;;;;;;;2.67;2.47;;;28.30;91.40;;;;;;5059369;28;20479;-85
2022/06/28 12:14:14;;;;;;;2.33;2.13;;;28.70;90.50;;;;;;5057863;28;20481;-84
2022/06/28 12:16:48;;;;;;;3.73;2.43;;;28.40;88.60;;;;;;5059057;28;20439;-84
2022/06/28 12:19:17;;;;;;;2.37;2.27;;;28.80;90.40;;;;;;5059082;28;20902;-85
2022/06/28 12:22:01;;;;;;;2.37;2.27;;;29.00;89.50;;;;;;5060184;28;20468;-83
2022/06/28 12:24:39;;;;;;;3.50;2.10;;;29.30;90.20;;;;;;5059272;28;20448;-84
2022/06/28 12:27:06;;;;;;;2.07;1.97;;;29.60;87.90;;;;;;5059916;28;20479;-82
2022/06/28 12:29:33;;;;;;;2.40;1.97;;;29.80;87.00;;;;;;5061772;28;20455;-82
2022/06/28 12:32:00;;;;;;;2.40;2.23;;;29.80;86.30;;;;;;5061330;28;20817;-82
2022/06/28 12:34:31;;;;;;;2.97;2.70;;;29.70;86.00;;;;;;5058102;28;20446;-84
2022/06/28 12:36:59;;;;;;;2.60;2.40;;;29.40;87.10;;;;;;5060572;28;20468;-84
2022/06/28 12:39:27;;;;;;;2.93;2.23;;;28.20;85.30;;;;;;5055454;28;20476;-84
2022/06/28 12:41:56;;;;;;;2.70;2.00;;;28.20;88.90;;;;;;5060594;28;20492;-86
2022/06/28 12:44:23;;;;;;;1.90;1.80;;;28.20;90.00;;;;;;5061004;28;20461;-84
2022/06/28 12:46:51;;;;;;;2.40;2.20;;;28.40;90.00;;;;;;5059761;28;20454;-82
2022/06/28 12:49:18;;;;;;;2.17;2.07;;;28.70;89.70;;;;;;5059994;28;21005;-82
2022/06/28 12:51:46;;;;;;;1.83;1.73;;;28.90;86.30;;;;;;5060125;28;20461;-82
2022/06/28 12:54:13;;;;;;;2.43;2.23;;;29.00;88.40;;;;;;5059568;28;21050;-81
2022/06/28 12:56:42;;;;;;;2.20;2.00;;;29.10;88.70;;;;;;5059000;28;20450;-83
2022/06/28 12:59:11;;;;;;;1.70;1.60;;;29.10;87.30;;;;;;5056150;28;21016;-85
2022/06/28 13:01:38;;;;;;;1.83;1.70;;;28.90;86.80;;;;;;5056067;28;20514;-83
2022/06/28 13:04:05;;;;;;;2.07;1.80;;;29.00;86.90;;;;;;5055922;28;20459;-83
2022/06/28 13:06:36;;;;;;;2.47;2.13;;;28.90;86.60;;;;;;5056728;28;20454;-84
2022/06/28 13:09:03;;;;;;;2.07;1.97;;;28.80;86.50;;;;;;5056668;28;20487;-83
2022/06/28 13:11:31;;;;;;;1.97;1.87;;;28.80;85.80;;;;;;5055323;28;20944;-84
2022/06/28 13:14:03;;;;;;;2.60;2.37;;;28.70;85.90;;;;;;5056320;28;20521;-83
2022/06/28 13:16:30;;;;;;;2.23;1.83;;;28.50;87.30;;;;;;5037147;28;20439;-82
2022/06/28 13:19:00;;;;;;;2.13;2.03;;;28.40;87.70;;;;;;5041104;28;20486;-85
2022/06/28 13:21:51;;;;;;;1.80;1.70;;;28.30;87.80;;;;;;5055318;28;20466;-85
2022/06/28 13:24:19;;;;;;;3.03;1.63;;;28.40;88.80;;;;;;5056806;28;20470;-84
2022/06/28 13:26:54;;;;;;;2.13;1.93;;;28.70;90.30;;;;;;5055985;28;20443;-85
2022/06/28 13:29:30;;;;;;;2.37;1.97;;;29.00;86.50;;;;;;5056656;28;20466;-84
2022/06/28 13:31:57;;;;;;;1.80;1.70;;;29.70;84.90;;;;;;5077333;22;20464;-85
2022/06/28 13:34:23;;;;;;;1.60;1.50;;;30.20;81.00;;;;;;5018770;28;20490;-85
2022/06/28 13:43:34;;;;;;;2.63;1.97;;;31.20;78.70;;;;;;4986653;28;20444;-85
2022/06/28 13:46:04;;;;;;;2.37;2.17;;;31.90;76.30;;;;;;5033952;28;20459;-86
2022/06/28 13:48:32;;;;;;;1.80;1.53;;;32.30;73.70;;;;;;5030416;28;20462;-85
2022/06/28 13:50:59;;;;;;;2.00;1.73;;;33.00;72.60;;;;;;5042061;28;20487;-86
2022/06/28 13:53:28;;;;;;;1.80;1.70;;;33.30;70.10;;;;;;5027994;28;20480;-86
2022/06/28 13:56:22;;;;;;;3.40;1.73;;;33.50;69.50;;;;;;5017847;28;20978;-85
2022/06/28 13:58:49;;;;;;;2.20;1.53;;;33.40;67.50;;;;;;5023655;28;20464;-84
2022/06/28 14:01:18;;;;;;;1.70;1.60;;;33.30;66.00;;;;;;5015236;28;20462;-87
2022/06/28 14:03:44;;;;;;;1.80;1.70;;;33.00;63.70;;;;;;5015515;28;20978;-87
2022/06/28 14:09:55;;;;;;;1.57;1.47;;;31.90;67.50;;;;;;4973282;28;20489;-88
2022/06/28 14:12:22;;;;;;;1.77;1.63;;;31.80;69.10;;;;;;4996230;28;21033;-88
2022/06/28 14:14:52;;;;;;;2.10;1.67;;;32.00;68.60;;;;;;4996727;28;20548;-88
2022/06/28 14:17:20;;;;;;;1.87;1.70;;;32.20;68.10;;;;;;5003256;28;20455;-87
2022/06/28 14:19:47;;;;;;;1.57;1.47;;;32.20;67.30;;;;;;5037312;28;20501;-87
2022/06/28 14:22:15;;;;;;;1.90;1.77;;;32.10;65.90;;;;;;5023656;28;20553;-86
2022/06/28 14:24:42;;;;;;;1.90;1.80;;;32.00;65.90;;;;;;5011255;28;20567;-85
2022/06/28 14:27:09;;;;;;;1.53;1.43;;;31.80;68.00;;;;;;5012784;28;20460;-87
2022/06/28 14:29:36;;;;;;;1.70;1.60;;;31.80;68.00;;;;;;5016246;28;20472;-90
2022/06/28 14:32:21;;;;;;;2.23;1.70;;;31.90;67.10;;;;;;5017182;28;20505;-88
2022/06/28 14:34:49;;;;;;;1.53;1.43;;;32.00;66.20;;;;;;5006423;28;20492;-85
2022/06/28 14:37:18;;;;;;;2.60;1.90;;;32.00;66.70;;;;;;5021960;28;20607;-88
2022/06/28 14:39:45;;;;;;;1.40;1.30;;;31.80;64.60;;;;;;5019528;28;20462;-87
2022/06/28 14:42:12;;;;;;;2.00;1.90;;;31.50;64.50;;;;;;5015606;28;21016;-87
2022/06/28 14:44:43;;;;;;;3.03;1.90;;;31.20;66.80;;;;;;5008673;28;20814;-87
2022/06/28 14:47:10;;;;;;;1.50;1.50;;;30.80;68.20;;;;;;5024647;28;20468;-87
2022/06/28 14:49:37;;;;;;;1.80;1.70;;;30.60;67.80;;;;;;5029117;28;21050;-87
2022/06/28 14:52:08;;;;;;;1.80;1.50;;;30.20;68.20;;;;;;5033524;28;20486;-87
2022/06/28 14:54:51;;;;;;;1.37;1.33;;;29.80;69.50;;;;;;5014722;28;20484;-88
2022/06/28 15:01:07;;;;;;;1.60;1.60;;;29.40;71.30;;;;;;4893625;28;20553;-88
2022/06/28 15:03:34;;;;;;;1.57;1.47;;;29.30;71.50;;;;;;4990941;28;20474;-87
2022/06/28 15:06:01;;;;;;;1.90;1.80;;;29.00;71.90;;;;;;5016106;28;20458;-86
2022/06/28 15:08:30;;;;;;;1.60;1.50;;;29.30;73.30;;;;;;5005825;28;20974;-87
2022/06/28 15:11:06;;;;;;;1.90;1.80;;;29.60;70.90;;;;;;5024670;28;20466;-88
2022/06/28 15:13:38;;;;;;;2.30;2.07;;;29.80;71.30;;;;;;5005615;28;20503;-89
2022/06/28 15:16:20;;;;;;;2.03;1.80;;;30.10;70.90;;;;;;4995293;28;20454;-88
2022/06/28 15:19:10;;;;;;;1.83;1.73;;;30.20;70.50;;;;;;5014936;28;20539;-89
2022/06/28 15:32:41;;;;;;;1.80;1.70;;;30.80;68.40;;;;;;5021087;28;20473;-89
2022/06/28 15:35:12;;;;;;;1.77;1.67;;;30.80;68.10;;;;;;5022794;28;20467;-88
2022/06/28 15:37:38;;;;;;;2.00;1.90;;;30.70;68.50;;;;;;5017166;28;20469;-85
2022/06/28 15:40:09;;;;;;;1.40;1.30;;;30.60;67.90;;;;;;5012495;28;20465;-83
2022/06/28 15:42:36;;;;;;;3.57;3.37;;;30.40;68.40;;;;;;5019401;28;20540;-83
2022/06/28 15:45:10;;;;;;;2.10;1.90;;;30.20;70.70;;;;;;5018608;28;20465;-89
2022/06/28 15:47:37;;;;;;;3.10;2.90;;;30.10;70.80;;;;;;5001715;28;20468;-87
2022/06/28 15:50:05;;;;;;;1.90;1.80;;;29.90;70.50;;;;;;5025746;28;20469;-87
2022/06/28 15:52:31;;;;;;;2.17;2.07;;;29.60;71.50;;;;;;5026507;28;20485;-86
2022/06/28 15:58:22;;;;;;;2.57;2.40;;;28.80;73.50;;;;;;5018142;28;20430;-86
2022/06/28 16:00:52;;;;;;;2.27;2.17;;;28.40;74.40;;;;;;5029427;28;20473;-87
2022/06/28 16:03:27;;;;;;;2.67;2.47;;;28.10;75.50;;;;;;5023406;28;20485;-89
2022/06/28 16:05:54;;;;;;;2.90;2.73;;;27.80;76.30;;;;;;5000092;28;20467;-87
2022/06/28 16:08:21;;;;;;;2.63;2.43;;;27.80;76.50;;;;;;5015572;28;20963;-87
2022/06/28 16:13:30;;;;;;;2.77;2.40;;;27.60;78.50;;;;;;5033805;28;20862;-86
2022/06/28 16:16:01;;;;;;;2.90;2.70;;;27.50;77.10;;;;;;5027342;28;20959;-89
2022/06/28 16:18:29;;;;;;;3.33;3.03;;;27.50;78.00;;;;;;5021374;28;20491;-89
2022/06/28 16:20:56;;;;;;;2.60;2.30;;;27.50;78.70;;;;;;5025626;28;20499;-86
2022/06/28 16:23:22;;;;;;;2.20;2.10;;;27.40;79.40;;;;;;5030634;28;20511;-86
2022/06/28 16:25:49;;;;;;;2.63;2.53;;;27.30;80.10;;;;;;5041462;28;20464;-87
2022/06/28 16:28:32;;;;;;;2.33;2.23;;;27.30;80.90;;;;;;5022105;28;20456;-89
2022/06/28 16:30:59;;;;;;;2.40;2.30;;;27.10;81.00;;;;;;4998021;28;20478;-88
2022/06/28 16:33:26;;;;;;;2.30;2.20;;;27.10;80.80;;;;;;5022054;28;20537;-86
2022/06/28 16:46:07;;;;;;;2.57;2.47;;;26.90;82.90;;;;;;4957338;28;20458;-89
2022/06/28 17:07:45;;;;;;;2.87;2.67;;;27.60;80.60;;;;;;5081317;28;20415;-87
2022/06/28 17:10:15;;;;;;;3.90;3.50;;;27.60;80.20;;;;;;5082759;28;20458;-89
2022/06/28 17:12:45;;;;;;;2.70;2.50;;;27.60;80.60;;;;;;5087310;28;20497;-88
2022/06/28 17:15:15;;;;;;;2.77;2.67;;;27.70;80.50;;;;;;5082994;28;20481;-87
2022/06/28 17:17:43;;;;;;;3.10;2.83;;;28.00;80.50;;;;;;5081606;28;20976;-86
2022/06/28 17:20:11;;;;;;;3.13;2.93;;;28.30;80.20;;;;;;5090715;28;20445;-86
2022/06/28 17:22:39;;;;;;;3.60;3.40;;;28.60;79.50;;;;;;5079678;28;20477;-85
2022/06/28 17:25:08;;;;;;;3.50;3.20;;;28.80;78.50;;;;;;5077815;28;20451;-85
2022/06/28 17:27:35;;;;;;;3.40;3.20;;;28.90;77.90;;;;;;5076364;28;20940;-86
2022/06/28 17:30:02;;;;;;;3.33;3.13;;;28.90;77.30;;;;;;5079478;28;20541;-85
2022/06/28 17:32:29;;;;;;;3.60;3.30;;;28.80;77.00;;;;;;5076620;28;20498;-88
2022/06/28 17:34:57;;;;;;;2.97;2.87;;;28.60;78.20;;;;;;5076168;28;20479;-86
2022/06/28 17:37:24;;;;;;;3.40;3.20;;;28.50;78.70;;;;;;5076909;28;20449;-86
2022/06/28 17:39:51;;;;;;;3.40;3.17;;;28.40;79.00;;;;;;5089005;28;20826;-87
2022/06/28 17:42:19;;;;;;;3.40;3.10;;;28.40;79.50;;;;;;5097954;28;20500;-86
2022/06/28 17:44:48;;;;;;;3.20;3.00;;;28.30;79.10;;;;;;5097219;28;20453;-86
2022/06/28 17:47:15;;;;;;;3.10;2.90;;;28.10;79.60;;;;;;5092258;28;20544;-86
2022/06/28 17:49:42;;;;;;;4.10;3.70;;;28.00;80.20;;;;;;5094719;28;20644;-87
2022/06/28 17:52:09;;;;;;;3.40;3.20;;;27.80;80.80;;;;;;5093343;28;20479;-86
2022/06/28 17:54:38;;;;;;;3.37;3.07;;;27.60;81.60;;;;;;5092280;28;20482;-86
2022/06/28 17:57:06;;;;;;;3.97;3.57;;;27.40;83.00;;;;;;5103962;28;20540;-86
2022/06/28 17:59:35;;;;;;;3.80;3.37;;;27.20;83.30;;;;;;5097586;28;20811;-86
2022/06/28 18:02:02;;;;;;;3.57;3.30;;;27.00;84.30;;;;;;5077290;28;20472;-85
2022/06/28 18:04:29;;;;;;;4.80;4.40;;;26.70;85.50;;;;;;5078513;28;20431;-86
2022/06/28 18:06:55;;;;;;;4.10;3.80;;;26.60;85.40;;;;;;5079610;28;20449;-86
2022/06/28 18:09:22;;;;;;;4.47;4.17;;;26.40;86.20;;;;;;5077451;28;20462;-86
2022/06/28 18:11:54;;;;;;;4.30;3.90;;;26.20;86.70;;;;;;5078615;28;20448;-86
2022/06/28 18:14:22;;;;;;;3.90;3.70;;;26.00;88.00;;;;;;5082831;28;20468;-84
2022/06/28 18:16:51;;;;;;;4.50;4.10;;;25.70;89.10;;;;;;5092789;28;20453;-86
2022/06/28 18:19:18;;;;;;;4.10;3.80;;;25.60;90.00;;;;;;5093478;28;20453;-86
2022/06/28 18:21:45;;;;;;;3.80;3.53;;;25.40;90.30;;;;;;5111973;28;20517;-86
2022/06/28 18:24:12;;;;;;;4.77;4.47;;;25.20;90.70;;;;;;5110742;28;20443;-85
2022/06/28 18:26:42;;;;;;;4.67;4.37;;;25.10;91.10;;;;;;5098268;28;20431;-87
2022/06/28 18:29:16;;;;;;;4.37;4.10;;;25.00;91.50;;;;;;5087654;28;20455;-88
2022/06/28 18:31:44;;;;;;;4.40;4.20;;;24.90;92.10;;;;;;5089709;28;20456;-84
2022/06/28 18:34:12;;;;;;;3.77;3.57;;;24.80;92.40;;;;;;5082178;28;20515;-84
2022/06/28 18:36:39;;;;;;;4.27;3.97;;;24.80;92.30;;;;;;5077419;28;20462;-84
2022/06/28 18:39:06;;;;;;;3.83;3.63;;;24.60;92.70;;;;;;5076746;28;20451;-85
2022/06/28 18:41:33;;;;;;;3.83;3.53;;;24.60;92.80;;;;;;5077027;28;20458;-85
2022/06/28 18:43:59;;;;;;;4.13;3.87;;;24.50;93.10;;;;;;5076987;28;20926;-84
2022/06/28 18:46:26;;;;;;;3.93;3.70;;;24.40;93.40;;;;;;5076478;28;20456;-84
2022/06/28 18:48:53;;;;;;;5.17;3.90;;;24.40;93.60;;;;;;5076736;28;20450;-84
2022/06/28 18:51:21;;;;;;;5.20;4.80;;;24.30;93.70;;;;;;5076593;28;20457;-85
2022/06/28 19:11:19;;;;;;;4.30;3.90;;;23.80;95.20;;;;;;4922561;28;20571;-88
2022/06/28 19:14:28;;;;;;;4.57;4.13;;;23.60;95.20;;;;;;5001086;28;20482;-88
2022/06/28 20:02:44;;;;;;;5.77;5.37;;;21.10;99.90;;;;;;5061636;28;20408;-85
2022/06/28 20:06:09;;;;;;;5.80;5.33;;;21.00;99.90;;;;;;5068808;28;20484;-86
